Time;durP1;ratioP1;P1;durP2;ratioP2;P2;SDS_P1;SDS_P2;PMS_P1;PMS_P2;Temp;Humidity;BMP_temperature;BMP_pressure;BME280_temperature;BME280_humidity;BME280_pressure;Samples;Min_cycle;Max_cycle;Signal;HPM_P1;HPM_P2
2022/10/10 00:01:20;;;;;;;5.45;3.22;;;;;;;6.52;100.00;99116.91;1790152;79;20911;-59
2022/10/10 00:03:47;;;;;;;5.85;3.35;;;;;;;6.54;100.00;99116.95;1750032;80;21141;-59
2022/10/10 00:06:14;;;;;;;7.83;3.75;;;;;;;6.55;100.00;99117.22;1714832;82;20940;-60
2022/10/10 00:08:42;;;;;;;6.03;3.95;;;;;;;6.57;100.00;99115.13;1772612;79;21134;-59
2022/10/10 00:11:10;;;;;;;5.90;4.65;;;;;;;6.59;100.00;99111.73;1797039;79;21000;-59
2022/10/10 00:13:38;;;;;;;7.20;4.42;;;;;;;6.60;100.00;99110.67;1800462;79;21407;-61
2022/10/10 00:16:05;;;;;;;6.35;4.83;;;;;;;6.54;100.00;99110.30;1778218;80;21233;-61
2022/10/10 00:18:32;;;;;;;6.08;3.98;;;;;;;6.47;100.00;99117.61;1804068;79;20885;-60
2022/10/10 00:20:59;;;;;;;8.38;4.28;;;;;;;6.43;100.00;99122.31;1792732;79;20900;-58
2022/10/10 00:23:26;;;;;;;9.15;5.12;;;;;;;6.37;100.00;99117.41;1721141;82;21044;-60
2022/10/10 00:26:01;;;;;;;8.98;6.05;;;;;;;6.34;100.00;99120.52;1795317;78;22413;-60
2022/10/10 00:28:28;;;;;;;6.17;4.22;;;;;;;6.33;100.00;99120.25;1785602;79;21221;-60
2022/10/10 00:30:55;;;;;;;5.17;4.10;;;;;;;6.31;100.00;99115.70;1797839;79;20999;-60
2022/10/10 00:33:23;;;;;;;5.30;3.70;;;;;;;6.30;100.00;99122.05;1763000;80;21081;-61
2022/10/10 00:35:50;;;;;;;6.97;3.72;;;;;;;6.30;100.00;99123.38;1804133;79;21010;-60
2022/10/10 00:38:18;;;;;;;10.35;4.05;;;;;;;6.29;100.00;99123.08;1801898;79;21065;-61
2022/10/10 00:40:52;;;;;;;7.05;4.45;;;;;;;6.28;100.00;99118.00;1788563;79;21102;-60
2022/10/10 00:43:21;;;;;;;6.78;4.62;;;;;;;6.24;100.00;99119.01;1748211;81;20861;-60
2022/10/10 00:45:48;;;;;;;7.47;4.08;;;;;;;6.23;100.00;99121.38;1801851;78;20908;-62
2022/10/10 00:48:26;;;;;;;6.50;3.98;;;;;;;6.19;100.00;99117.03;1712272;81;20980;-60
2022/10/10 00:51:13;;;;;;;4.90;3.50;;;;;;;6.20;100.00;99123.16;1799568;79;20920;-60
2022/10/10 00:53:53;;;;;;;5.97;3.72;;;;;;;6.18;100.00;99124.73;1812823;79;21226;-59
2022/10/10 00:56:24;;;;;;;5.03;3.80;;;;;;;6.22;100.00;99124.28;1756724;80;20904;-61
2022/10/10 00:58:52;;;;;;;5.60;4.17;;;;;;;6.22;100.00;99119.73;1791904;79;21053;-62
2022/10/10 01:01:19;;;;;;;5.05;3.80;;;;;;;6.19;100.00;99121.02;1758055;80;20947;-61
2022/10/10 01:03:47;;;;;;;6.00;3.60;;;;;;;6.17;100.00;99120.99;1802793;79;20960;-60
2022/10/10 01:06:14;;;;;;;4.60;3.62;;;;;;;6.14;100.00;99122.78;1800563;79;21164;-61
2022/10/10 01:08:42;;;;;;;6.45;4.00;;;;;;;6.11;100.00;99113.93;1783972;79;21405;-62
2022/10/10 01:11:46;;;;;;;6.03;4.03;;;;;;;6.10;100.00;99114.98;1794307;79;20881;-61
2022/10/10 01:14:31;;;;;;;5.83;4.37;;;;;;;6.11;100.00;99116.59;1721640;79;21477;-60
2022/10/10 01:17:34;;;;;;;6.03;4.12;;;;;;;6.09;100.00;99112.03;1797378;79;21003;-60
2022/10/10 01:20:38;;;;;;;9.35;3.75;;;;;;;6.05;100.00;99109.02;1785317;79;22023;-59
2022/10/10 01:23:42;;;;;;;6.83;4.30;;;;;;;6.06;100.00;99100.52;1795288;79;20872;-59
2022/10/10 01:26:23;;;;;;;7.72;5.20;;;;;;;6.05;100.00;99106.90;1723672;81;20961;-59
2022/10/10 01:29:14;;;;;;;9.80;7.05;;;;;;;6.07;100.00;99110.13;1783380;79;20948;-62
2022/10/10 01:31:43;;;;;;;10.40;7.25;;;;;;;6.12;100.00;99115.02;1787481;79;20920;-60
2022/10/10 01:34:34;;;;;;;11.45;7.05;;;;;;;6.11;100.00;99113.93;1705283;82;21072;-60
2022/10/10 01:37:06;;;;;;;12.10;5.45;;;;;;;6.08;100.00;99116.53;1779684;79;20944;-61
2022/10/10 01:39:58;;;;;;;10.00;5.10;;;;;;;6.05;100.00;99121.53;1793526;79;21419;-60
2022/10/10 01:42:36;;;;;;;7.17;4.92;;;;;;;6.02;100.00;99121.98;1752689;80;20974;-59
2022/10/10 01:45:04;;;;;;;7.15;4.90;;;;;;;5.98;100.00;99124.84;1782061;79;21407;-60
2022/10/10 01:47:30;;;;;;;4.97;4.47;;;;;;;5.99;100.00;99124.59;1803976;79;21407;-60
2022/10/10 01:50:01;;;;;;;7.47;4.92;;;;;;;6.00;100.00;99132.05;1781251;79;20983;-61
2022/10/10 01:52:46;;;;;;;6.08;4.75;;;;;;;6.00;100.00;99125.41;1799909;79;21115;-61
2022/10/10 01:55:45;;;;;;;7.72;4.62;;;;;;;6.02;100.00;99135.28;1795533;79;21384;-61
2022/10/10 01:58:17;;;;;;;6.37;5.17;;;;;;;6.00;100.00;99130.20;1789326;79;20967;-62
2022/10/10 02:00:52;;;;;;;6.90;5.08;;;;;;;6.00;100.00;99135.53;1791520;79;21458;-64
2022/10/10 02:03:35;;;;;;;7.95;5.45;;;;;;;6.03;100.00;99134.26;1798985;79;21395;-63
2022/10/10 02:06:12;;;;;;;7.08;5.33;;;;;;;5.97;100.00;99132.52;1781863;79;21389;-60
2022/10/10 02:08:44;;;;;;;6.95;5.28;;;;;;;5.93;100.00;99138.02;1777341;79;21010;-62
2022/10/10 02:11:12;;;;;;;6.35;4.45;;;;;;;5.92;100.00;99137.71;1806218;79;21027;-62
2022/10/10 02:13:43;;;;;;;6.30;5.28;;;;;;;5.91;100.00;99136.90;1702440;82;21107;-62
2022/10/10 02:16:25;;;;;;;6.35;5.70;;;;;;;5.92;100.00;99135.87;1752509;80;21409;-59
2022/10/10 02:18:52;;;;;;;8.30;6.10;;;;;;;5.94;100.00;99143.61;1730871;82;20923;-61
2022/10/10 02:21:19;;;;;;;7.87;5.85;;;;;;;5.94;100.00;99144.42;1732028;80;20888;-61
2022/10/10 02:23:47;;;;;;;6.05;4.92;;;;;;;5.98;100.00;99147.44;1782917;79;21004;-62
2022/10/10 02:26:16;;;;;;;8.10;5.10;;;;;;;6.02;100.00;99146.73;1725909;80;20936;-61
2022/10/10 02:28:56;;;;;;;8.93;5.37;;;;;;;6.07;100.00;99148.70;1779510;78;20954;-59
2022/10/10 02:31:34;;;;;;;9.05;5.78;;;;;;;6.12;100.00;99155.46;1806420;79;20909;-62
2022/10/10 02:34:12;;;;;;;7.83;5.83;;;;;;;6.15;100.00;99154.45;1802406;79;21427;-61
2022/10/10 02:36:40;;;;;;;11.38;6.12;;;;;;;6.16;100.00;99156.60;1777502;79;20964;-61
2022/10/10 02:39:06;;;;;;;7.17;5.53;;;;;;;6.15;100.00;99158.96;1762202;79;21137;-61
2022/10/10 02:41:34;;;;;;;9.80;5.50;;;;;;;6.16;100.00;99160.59;1799352;79;20924;-63
2022/10/10 02:44:01;;;;;;;7.00;5.92;;;;;;;6.21;100.00;99160.70;1777847;79;20903;-59
2022/10/10 02:46:28;;;;;;;8.18;6.20;;;;;;;6.27;100.00;99165.08;1784811;78;21355;-61
2022/10/10 02:48:56;;;;;;;10.20;6.58;;;;;;;6.32;100.00;99165.19;1785584;79;21020;-61
2022/10/10 02:51:22;;;;;;;10.18;5.60;;;;;;;6.40;100.00;99166.17;1737074;78;21077;-62
2022/10/10 02:53:50;;;;;;;7.75;5.83;;;;;;;6.43;100.00;99159.03;1786467;79;20881;-59
2022/10/10 02:56:17;;;;;;;8.63;6.47;;;;;;;6.49;100.00;99158.10;1783047;79;20983;-61
2022/10/10 02:58:44;;;;;;;8.03;6.60;;;;;;;6.55;100.00;99162.47;1789766;79;21407;-64
2022/10/10 03:01:10;;;;;;;7.47;6.37;;;;;;;6.62;100.00;99157.82;1780895;79;20880;-60
2022/10/10 03:03:37;;;;;;;8.23;6.25;;;;;;;6.69;100.00;99158.49;1783001;79;21099;-60
2022/10/10 03:06:05;;;;;;;9.48;5.78;;;;;;;6.76;100.00;99152.50;1776526;79;20967;-60
2022/10/10 03:08:32;;;;;;;8.75;6.28;;;;;;;6.80;100.00;99151.01;1791680;79;21075;-61
2022/10/10 03:11:00;;;;;;;8.08;6.20;;;;;;;6.81;100.00;99156.59;1724402;81;20944;-62
2022/10/10 03:13:28;;;;;;;8.13;6.33;;;;;;;6.82;100.00;99158.23;1768160;80;20850;-60
2022/10/10 03:15:55;;;;;;;8.80;6.50;;;;;;;6.84;100.00;99158.80;1792172;79;21414;-60
2022/10/10 03:18:23;;;;;;;9.75;6.28;;;;;;;6.86;100.00;99166.02;1782808;79;21026;-61
2022/10/10 03:20:53;;;;;;;9.50;6.12;;;;;;;6.85;100.00;99164.39;1791682;79;20880;-61
2022/10/10 03:23:23;;;;;;;9.05;6.25;;;;;;;6.86;100.00;99159.36;1789158;79;20956;-62
2022/10/10 03:25:51;;;;;;;9.30;6.53;;;;;;;6.89;100.00;99166.89;1796526;79;20916;-61
2022/10/10 03:28:18;;;;;;;7.47;5.90;;;;;;;6.92;100.00;99168.27;1776622;79;21158;-62
2022/10/10 03:30:45;;;;;;;8.15;6.65;;;;;;;6.95;100.00;99165.66;1776612;80;20943;-62
2022/10/10 03:33:12;;;;;;;8.58;6.42;;;;;;;6.97;100.00;99156.90;1793237;79;20880;-61
2022/10/10 03:35:39;;;;;;;8.33;6.30;;;;;;;7.00;100.00;99160.39;1792246;79;20903;-62
2022/10/10 03:38:07;;;;;;;8.15;5.85;;;;;;;7.03;100.00;99159.41;1785509;79;21054;-60
2022/10/10 03:40:35;;;;;;;10.08;6.42;;;;;;;7.05;100.00;99157.83;1784190;79;21041;-61
2022/10/10 03:43:02;;;;;;;9.30;6.95;;;;;;;7.10;100.00;99161.92;1700197;82;21459;-60
2022/10/10 03:45:29;;;;;;;9.48;6.80;;;;;;;7.13;100.00;99164.11;1701510;83;20932;-61
2022/10/10 03:47:56;;;;;;;14.83;6.42;;;;;;;7.15;100.00;99166.83;1733792;81;21148;-62
2022/10/10 03:50:22;;;;;;;9.15;6.40;;;;;;;7.19;100.00;99167.14;1774184;80;21038;-61
2022/10/10 03:52:49;;;;;;;7.90;6.50;;;;;;;7.21;100.00;99170.37;1748698;81;21032;-60
2022/10/10 03:55:16;;;;;;;11.50;7.33;;;;;;;7.22;100.00;99168.00;1796919;79;20960;-61
2022/10/10 03:57:43;;;;;;;9.53;6.62;;;;;;;7.27;100.00;99166.76;1796043;79;20908;-60
2022/10/10 04:00:11;;;;;;;9.10;6.97;;;;;;;7.28;100.00;99171.02;1797130;79;20935;-61
2022/10/10 04:02:38;;;;;;;12.10;6.12;;;;;;;7.27;100.00;99168.91;1711041;81;20896;-60
2022/10/10 04:05:06;;;;;;;7.55;5.97;;;;;;;7.29;100.00;99169.47;1725546;81;21948;-61
2022/10/10 04:07:33;;;;;;;10.88;6.92;;;;;;;7.30;100.00;99170.28;1778272;80;21513;-61
2022/10/10 04:10:00;;;;;;;9.35;6.50;;;;;;;7.31;100.00;99166.55;1778524;80;21027;-61
2022/10/10 04:12:27;;;;;;;12.33;7.10;;;;;;;7.31;100.00;99170.55;1774206;80;21498;-62
2022/10/10 04:14:53;;;;;;;8.65;6.72;;;;;;;7.28;100.00;99170.50;1773669;80;21019;-60
2022/10/10 04:17:20;;;;;;;8.20;6.45;;;;;;;7.28;100.00;99167.02;1771765;80;21692;-61
2022/10/10 04:19:46;;;;;;;7.80;6.15;;;;;;;7.28;100.00;99171.02;1773057;80;21103;-60
2022/10/10 04:22:15;;;;;;;10.72;6.62;;;;;;;7.27;100.00;99169.42;1775678;80;21055;-59
2022/10/10 04:24:42;;;;;;;19.17;6.37;;;;;;;7.29;100.00;99167.33;1770559;80;21102;-60
2022/10/10 04:27:09;;;;;;;15.58;6.17;;;;;;;7.33;100.00;99171.11;1772385;80;21027;-60
2022/10/10 04:29:35;;;;;;;19.60;7.15;;;;;;;7.33;100.00;99169.27;1775919;80;21060;-60
2022/10/10 04:32:02;;;;;;;8.63;5.90;;;;;;;7.31;100.00;99170.03;1775515;80;20867;-61
2022/10/10 04:34:29;;;;;;;8.80;5.33;;;;;;;7.26;100.00;99175.79;1775178;80;20920;-61
2022/10/10 04:36:56;;;;;;;9.73;5.47;;;;;;;7.16;100.00;99174.30;1773099;80;21557;-61
2022/10/10 04:39:22;;;;;;;13.35;5.83;;;;;;;7.05;100.00;99175.14;1775399;80;20857;-61
2022/10/10 04:41:50;;;;;;;16.73;5.78;;;;;;;6.99;100.00;99170.78;1775017;80;21759;-61
2022/10/10 04:44:17;;;;;;;11.55;5.95;;;;;;;6.98;100.00;99172.63;1777324;80;21003;-60
2022/10/10 04:46:44;;;;;;;6.90;5.72;;;;;;;6.95;100.00;99169.65;1770428;80;21146;-61
2022/10/10 04:49:11;;;;;;;7.85;5.78;;;;;;;6.92;100.00;99172.78;1767540;80;20991;-60
2022/10/10 04:51:38;;;;;;;6.90;5.72;;;;;;;6.90;100.00;99176.48;1774020;80;20904;-60
2022/10/10 04:54:05;;;;;;;12.03;5.83;;;;;;;6.90;100.00;99176.48;1768611;80;21998;-60
2022/10/10 04:56:33;;;;;;;7.12;6.25;;;;;;;6.92;100.00;99178.11;1776371;80;21142;-60
2022/10/10 04:58:59;;;;;;;8.50;6.22;;;;;;;6.88;100.00;99175.91;1776304;80;21146;-61
2022/10/10 05:01:26;;;;;;;10.30;6.42;;;;;;;6.93;100.00;99183.19;1776359;80;20971;-61
2022/10/10 05:09:03;;;;;;;10.23;6.30;;;;;;;7.04;100.00;99181.53;1771888;80;20877;-61
2022/10/10 05:11:29;;;;;;;12.58;5.53;;;;;;;7.01;100.00;99182.00;1773258;80;21011;-58
2022/10/10 05:13:56;;;;;;;7.17;5.83;;;;;;;6.95;100.00;99178.42;1769204;80;20968;-61
2022/10/10 05:16:23;;;;;;;6.67;5.62;;;;;;;6.94;100.00;99178.16;1773437;80;20888;-60
2022/10/10 05:18:49;;;;;;;8.38;5.80;;;;;;;6.94;100.00;99181.34;1774513;80;21308;-60
2022/10/10 05:21:17;;;;;;;8.13;5.50;;;;;;;6.92;100.00;99178.92;1774720;80;21359;-63
2022/10/10 05:23:43;;;;;;;9.88;5.60;;;;;;;6.84;100.00;99176.11;1778377;80;20999;-62
2022/10/10 05:26:10;;;;;;;32.23;7.30;;;;;;;6.82;100.00;99179.53;1776586;80;20884;-59
2022/10/10 05:28:38;;;;;;;7.58;6.50;;;;;;;6.82;100.00;99174.73;1763639;79;21020;-61
2022/10/10 05:31:05;;;;;;;6.33;5.72;;;;;;;6.84;100.00;99180.10;1789996;79;21098;-61
2022/10/10 05:33:33;;;;;;;9.93;5.28;;;;;;;6.89;100.00;99184.20;1786466;79;21058;-58
2022/10/10 05:36:05;;;;;;;7.90;5.05;;;;;;;6.93;100.00;99185.03;1792023;79;20920;-61
2022/10/10 05:38:33;;;;;;;11.10;5.42;;;;;;;6.96;100.00;99179.24;1775269;79;20936;-63
2022/10/10 05:41:00;;;;;;;12.03;5.33;;;;;;;7.07;100.00;99193.02;1766565;80;21079;-60
2022/10/10 05:43:27;;;;;;;6.33;5.72;;;;;;;7.17;100.00;99188.70;1757109;80;22007;-61
2022/10/10 05:45:54;;;;;;;7.85;5.80;;;;;;;7.24;100.00;99186.70;1782105;79;21070;-60
2022/10/10 05:48:20;;;;;;;7.25;5.45;;;;;;;7.32;100.00;99184.17;1778602;79;20853;-60
2022/10/10 05:50:49;;;;;;;10.98;5.65;;;;;;;7.33;100.00;99191.92;1779233;79;20950;-60
2022/10/10 05:53:16;;;;;;;11.20;6.30;;;;;;;7.28;100.00;99197.16;1762994;80;20980;-61
2022/10/10 05:55:43;;;;;;;24.85;6.87;;;;;;;7.20;100.00;99212.73;1762777;80;21101;-62
2022/10/10 05:58:12;;;;;;;36.53;7.12;;;;;;;7.19;100.00;99215.10;1750634;80;20931;-63
2022/10/10 06:00:41;;;;;;;38.17;7.00;;;;;;;7.20;100.00;99211.41;1765108;80;21362;-61
2022/10/10 06:03:13;;;;;;;8.40;6.72;;;;;;;7.18;99.71;99217.50;1760097;80;21035;-60
2022/10/10 06:05:37;;;;;;;9.43;6.15;;;;;;;7.18;99.73;99220.16;1789386;79;21043;-62
2022/10/10 06:08:04;;;;;;;12.82;6.25;;;;;;;7.23;99.90;99217.05;1789795;79;21103;-60
2022/10/10 06:10:42;;;;;;;12.63;6.35;;;;;;;7.32;99.85;99216.16;1796950;79;21002;-61
2022/10/10 06:13:11;;;;;;;7.95;6.90;;;;;;;7.43;99.94;99213.95;1801909;79;21480;-60
2022/10/10 06:15:39;;;;;;;26.42;5.95;;;;;;;7.51;99.47;99217.56;1780614;79;20844;-59
2022/10/10 06:18:06;;;;;;;25.57;7.33;;;;;;;7.56;99.41;99221.11;1790616;79;21063;-60
2022/10/10 06:20:37;;;;;;;12.03;7.75;;;;;;;7.56;98.82;99220.29;1785256;79;20967;-60
2022/10/10 06:23:04;;;;;;;11.15;7.65;;;;;;;7.55;98.51;99224.02;1796147;79;21483;-60
2022/10/10 06:25:33;;;;;;;10.38;8.23;;;;;;;7.57;98.49;99221.92;1797843;79;20908;-61
2022/10/10 06:28:02;;;;;;;13.78;9.70;;;;;;;7.61;98.48;99223.05;1765112;79;20978;-59
2022/10/10 06:30:29;;;;;;;29.45;9.43;;;;;;;7.69;98.84;99224.00;1770033;79;21128;-65
2022/10/10 06:32:57;;;;;;;10.05;8.28;;;;;;;7.79;98.65;99219.36;1789898;79;21227;-64
2022/10/10 06:35:24;;;;;;;34.67;10.68;;;;;;;7.86;98.28;99220.00;1800234;79;21067;-61
2022/10/10 06:37:51;;;;;;;11.50;9.30;;;;;;;7.89;97.64;99221.64;1799537;79;21062;-61
2022/10/10 06:40:18;;;;;;;18.60;9.15;;;;;;;7.82;97.19;99219.66;1791478;79;20860;-63
2022/10/10 06:42:45;;;;;;;15.90;9.50;;;;;;;7.86;97.42;99218.15;1791283;79;21046;-63
2022/10/10 06:45:12;;;;;;;21.27;13.38;;;;;;;7.89;97.15;99219.52;1754584;80;21886;-61
2022/10/10 06:47:38;;;;;;;15.45;12.30;;;;;;;7.96;97.15;99222.84;1786241;79;20850;-62
2022/10/10 06:50:07;;;;;;;11.53;9.43;;;;;;;8.05;97.00;99226.19;1782165;79;20973;-61
2022/10/10 06:52:36;;;;;;;12.10;9.50;;;;;;;8.12;96.46;99233.50;1789041;79;21165;-63
2022/10/10 06:55:04;;;;;;;11.48;9.08;;;;;;;8.15;96.09;99234.84;1774840;79;21592;-61
2022/10/10 06:57:31;;;;;;;16.30;9.60;;;;;;;8.17;95.76;99233.55;1784169;79;21109;-59
2022/10/10 06:59:58;;;;;;;12.75;9.53;;;;;;;8.16;95.54;99230.61;1791391;79;21519;-63
2022/10/10 07:02:27;;;;;;;16.67;10.85;;;;;;;8.16;95.49;99233.28;1774853;80;21097;-62
2022/10/10 07:04:54;;;;;;;16.55;11.05;;;;;;;8.20;95.50;99232.25;1799709;79;21055;-63
2022/10/10 07:07:20;;;;;;;14.87;11.65;;;;;;;8.28;95.40;99233.73;1804938;79;21083;-63
2022/10/10 07:09:48;;;;;;;14.53;12.47;;;;;;;8.32;95.36;99230.84;1789670;79;21157;-60
2022/10/10 07:12:15;;;;;;;18.30;13.32;;;;;;;8.37;95.28;99232.27;1794077;79;21055;-62
2022/10/10 07:14:42;;;;;;;20.15;12.98;;;;;;;8.41;95.29;99233.41;1796027;79;21688;-63
2022/10/10 07:17:10;;;;;;;16.05;12.70;;;;;;;8.44;95.16;99228.89;1783441;79;20953;-63
2022/10/10 07:19:36;;;;;;;19.00;14.20;;;;;;;8.46;94.99;99231.59;1777107;79;21458;-60
2022/10/10 07:22:04;;;;;;;15.18;12.43;;;;;;;8.52;95.06;99229.81;1777407;79;21267;-73
2022/10/10 07:24:32;;;;;;;13.85;11.30;;;;;;;8.54;94.63;99231.70;1777874;79;21431;-60
2022/10/10 07:27:01;;;;;;;15.85;11.20;;;;;;;8.63;94.90;99227.55;1780972;79;21650;-62
2022/10/10 07:29:31;;;;;;;14.35;11.10;;;;;;;8.71;94.71;99228.46;1794631;78;20935;-59
2022/10/10 07:32:00;;;;;;;15.60;11.12;;;;;;;8.77;94.44;99228.27;1789992;79;20942;-61
2022/10/10 07:34:43;;;;;;;18.32;12.00;;;;;;;8.80;94.25;99222.97;1785227;79;20837;-58
2022/10/10 07:37:15;;;;;;;17.25;11.73;;;;;;;8.77;93.97;99230.94;1790789;78;21066;-59
2022/10/10 07:39:43;;;;;;;13.15;11.57;;;;;;;8.77;93.98;99222.11;1788150;79;21007;-61
2022/10/10 07:42:10;;;;;;;14.10;10.25;;;;;;;8.88;94.28;99223.32;1782145;79;20942;-65
2022/10/10 07:44:43;;;;;;;14.70;11.40;;;;;;;9.07;94.05;99226.48;1780944;79;21019;-60
2022/10/10 07:47:10;;;;;;;13.15;10.65;;;;;;;9.26;93.86;99226.94;1767700;79;21081;-61
2022/10/10 07:49:37;;;;;;;11.55;9.50;;;;;;;9.51;94.04;99226.69;1767166;80;21046;-59
2022/10/10 07:52:04;;;;;;;13.95;10.32;;;;;;;9.77;93.32;99221.55;1768855;79;21068;-60
2022/10/10 07:54:31;;;;;;;17.45;11.90;;;;;;;9.98;92.73;99220.12;1779849;79;21114;-60
2022/10/10 07:56:58;;;;;;;15.72;10.85;;;;;;;10.20;92.16;99221.36;1760968;79;20963;-62
2022/10/10 07:59:26;;;;;;;17.50;10.78;;;;;;;10.40;91.42;99221.50;1781751;79;21105;-59
2022/10/10 08:01:54;;;;;;;15.23;10.78;;;;;;;10.56;90.68;99216.49;1786652;79;21044;-60
2022/10/10 08:04:21;;;;;;;18.25;11.68;;;;;;;10.75;90.51;99223.02;1757488;80;21069;-62
2022/10/10 08:06:47;;;;;;;18.50;11.53;;;;;;;10.93;89.97;99220.39;1774813;80;20983;-61
2022/10/10 08:09:14;;;;;;;16.60;12.60;;;;;;;11.09;89.20;99226.11;1762155;80;20955;-62
2022/10/10 08:11:41;;;;;;;17.12;11.83;;;;;;;11.22;88.56;99220.77;1752255;80;21227;-61
2022/10/10 08:14:09;;;;;;;17.30;11.25;;;;;;;11.33;87.60;99223.20;1754258;80;20991;-60
2022/10/10 08:16:37;;;;;;;16.45;10.20;;;;;;;11.36;86.33;99219.19;1756418;80;20860;-63
2022/10/10 08:19:04;;;;;;;13.53;9.60;;;;;;;11.35;85.88;99218.38;1771712;79;21430;-60
2022/10/10 08:21:34;;;;;;;12.85;9.50;;;;;;;11.38;85.30;99219.72;1792539;78;20954;-62
2022/10/10 08:24:01;;;;;;;10.58;8.10;;;;;;;11.43;84.80;99218.39;1748276;80;21139;-61
2022/10/10 08:26:28;;;;;;;9.68;7.35;;;;;;;11.45;84.44;99216.24;1728054;82;20987;-63
2022/10/10 08:28:55;;;;;;;10.05;7.25;;;;;;;11.48;84.18;99220.55;1726429;82;20960;-61
2022/10/10 08:31:22;;;;;;;8.75;6.92;;;;;;;11.55;83.73;99217.61;1769506;80;21079;-61
2022/10/10 08:33:50;;;;;;;8.58;7.28;;;;;;;11.56;82.87;99220.02;1711205;82;21076;-60
2022/10/10 08:36:22;;;;;;;11.65;9.10;;;;;;;11.54;82.11;99224.06;1720540;82;22246;-62
2022/10/10 08:38:51;;;;;;;12.78;8.35;;;;;;;11.49;81.87;99218.69;1706548;82;21004;-61
2022/10/10 08:41:50;;;;;;;9.60;7.75;;;;;;;11.48;81.77;99217.88;1786557;79;20936;-60
2022/10/10 08:44:38;;;;;;;11.55;7.78;;;;;;;11.52;81.63;99223.50;1779711;78;20872;-59
2022/10/10 08:47:12;;;;;;;11.75;8.28;;;;;;;11.56;81.48;99219.23;1774414;79;21643;-63
2022/10/10 08:50:08;;;;;;;11.57;7.62;;;;;;;11.61;81.38;99219.24;1774288;79;21439;-59
2022/10/10 08:52:49;;;;;;;9.18;6.60;;;;;;;11.70;81.34;99217.66;1794909;79;20994;-61
2022/10/10 08:55:32;;;;;;;7.87;6.70;;;;;;;11.84;81.07;99208.00;1783876;79;20976;-62
2022/10/10 08:58:13;;;;;;;8.88;7.00;;;;;;;11.98;80.67;99203.70;1782390;79;21032;-61
2022/10/10 09:00:48;;;;;;;9.23;6.80;;;;;;;12.14;80.36;99206.63;1779305;79;21113;-61
2022/10/10 09:03:47;;;;;;;9.65;7.40;;;;;;;12.32;80.18;99214.11;1810623;78;21114;-62
2022/10/10 09:06:46;;;;;;;14.15;7.75;;;;;;;12.49;79.16;99208.97;1779474;78;21272;-58
2022/10/10 09:09:41;;;;;;;11.18;7.70;;;;;;;12.60;78.62;99211.91;1778449;79;21503;-61
2022/10/10 09:12:25;;;;;;;12.63;8.38;;;;;;;12.76;78.59;99207.55;1786275;79;47263;-61
2022/10/10 09:15:23;;;;;;;12.07;7.87;;;;;;;12.89;77.16;99210.17;1791304;79;20888;-61
2022/10/10 09:18:09;;;;;;;12.53;7.83;;;;;;;12.93;76.86;99209.91;1802559;79;21152;-61
2022/10/10 09:20:52;;;;;;;11.48;7.40;;;;;;;13.07;76.95;99202.88;1796853;79;20956;-60
2022/10/10 09:23:33;;;;;;;11.48;7.03;;;;;;;13.22;76.76;99200.63;1793114;79;21090;-60
2022/10/10 09:26:10;;;;;;;8.65;6.70;;;;;;;13.36;76.10;99205.11;1793335;79;20983;-61
2022/10/10 09:29:02;;;;;;;7.10;6.40;;;;;;;13.47;74.19;99199.92;1771170;79;20964;-61
2022/10/10 09:31:48;;;;;;;8.50;5.87;;;;;;;13.50;73.65;99199.37;1746856;80;21127;-61
2022/10/10 09:34:18;;;;;;;10.20;5.85;;;;;;;13.56;73.94;99199.61;1784195;79;21125;-62
2022/10/10 09:36:45;;;;;;;7.35;6.20;;;;;;;13.72;73.92;99197.59;1807278;79;20896;-63
2022/10/10 09:39:28;;;;;;;12.18;6.10;;;;;;;13.82;73.08;99195.37;1792912;79;21012;-62
2022/10/10 09:42:14;;;;;;;7.60;5.40;;;;;;;13.90;72.48;99202.28;1772711;79;21133;-63
2022/10/10 09:44:42;;;;;;;10.13;5.55;;;;;;;13.96;71.25;99195.78;1782977;79;22123;-61
2022/10/10 09:47:16;;;;;;;11.18;5.40;;;;;;;13.99;70.58;99201.16;1776483;79;21518;-62
2022/10/10 09:49:43;;;;;;;14.63;6.47;;;;;;;14.04;69.92;99197.04;1786666;79;20901;-59
2022/10/10 09:52:28;;;;;;;8.25;6.50;;;;;;;14.11;70.59;99201.55;1782484;79;20900;-60
2022/10/10 09:55:01;;;;;;;8.00;6.60;;;;;;;14.16;69.90;99199.63;1795511;79;21111;-60
2022/10/10 09:57:38;;;;;;;9.43;5.53;;;;;;;14.16;69.54;99200.16;1780445;79;21547;-60
2022/10/10 10:00:36;;;;;;;7.15;5.62;;;;;;;14.17;69.15;99201.25;1789638;79;21544;-59
2022/10/10 10:03:16;;;;;;;9.35;5.58;;;;;;;14.18;68.69;99197.45;1759750;80;20991;-59
2022/10/10 10:06:00;;;;;;;12.43;5.80;;;;;;;14.11;67.29;99196.98;1766355;80;20901;-60
2022/10/10 10:08:34;;;;;;;8.73;4.72;;;;;;;14.01;67.28;99197.62;1765019;80;21488;-60
2022/10/10 10:11:02;;;;;;;6.12;4.28;;;;;;;13.96;67.01;99194.98;1754558;80;21077;-62
2022/10/10 10:13:34;;;;;;;5.47;3.22;;;;;;;14.01;67.37;99195.75;1754068;79;20972;-59
2022/10/10 10:16:08;;;;;;;6.05;2.70;;;;;;;14.10;65.40;99189.19;1770545;80;21434;-60
2022/10/10 10:18:44;;;;;;;5.72;3.40;;;;;;;14.07;64.17;99184.36;1771570;80;21015;-60
2022/10/10 10:21:22;;;;;;;7.53;3.10;;;;;;;14.11;65.05;99189.44;1772051;80;20955;-60
2022/10/10 10:24:01;;;;;;;4.70;2.58;;;;;;;14.17;64.33;99189.12;1777502;80;21232;-60
2022/10/10 10:26:42;;;;;;;3.33;1.90;;;;;;;14.21;61.79;99182.61;1775457;80;21017;-58
2022/10/10 10:29:32;;;;;;;4.78;1.52;;;;;;;14.16;62.09;99185.34;1778583;80;21141;-59
2022/10/10 10:32:15;;;;;;;3.10;1.65;;;;;;;14.20;61.78;99172.94;1777173;80;20924;-62
2022/10/10 10:35:18;;;;;;;1.65;1.22;;;;;;;14.32;61.34;99173.35;1778458;80;20844;-65
2022/10/10 10:38:17;;;;;;;1.67;0.90;;;;;;;14.33;59.48;99172.27;1691529;84;21170;-60
2022/10/10 10:41:16;;;;;;;2.62;1.12;;;;;;;14.38;57.65;99163.60;1689250;84;20919;-60
2022/10/10 10:44:06;;;;;;;1.47;0.90;;;;;;;14.46;57.11;99160.02;1760583;80;21668;-59
2022/10/10 10:46:56;;;;;;;3.95;1.07;;;;;;;14.47;54.25;99153.52;1778238;80;21015;-60
2022/10/10 10:49:50;;;;;;;1.82;0.90;;;;;;;14.48;55.09;99153.25;1777705;80;20975;-59
2022/10/10 10:52:54;;;;;;;6.83;2.55;;;;;;;14.50;52.14;99149.72;1775267;80;21071;-61
2022/10/10 10:55:47;;;;;;;3.80;1.75;;;;;;;14.52;53.33;99144.84;1737027;80;20991;-60
2022/10/10 10:58:45;;;;;;;3.83;1.77;;;;;;;14.66;54.01;99142.23;1733112;81;21548;-60
2022/10/10 11:01:17;;;;;;;2.25;1.40;;;;;;;14.83;54.83;99144.72;1786896;79;21617;-59
2022/10/10 11:04:06;;;;;;;2.55;1.20;;;;;;;14.93;51.47;99137.82;1772992;79;21212;-59
2022/10/10 11:07:08;;;;;;;4.97;1.50;;;;;;;14.86;51.78;99140.08;1704372;82;21047;-59
2022/10/10 11:09:39;;;;;;;2.55;0.80;;;;;;;14.94;53.15;99135.39;1756202;80;21016;-59
2022/10/10 11:12:30;;;;;;;1.82;0.80;;;;;;;15.12;51.59;99130.30;1763898;80;20983;-65
2022/10/10 11:15:02;;;;;;;3.02;1.27;;;;;;;15.21;49.26;99127.19;1773033;78;21030;-60
2022/10/10 11:17:43;;;;;;;3.60;1.12;;;;;;;15.33;50.92;99128.91;1770589;78;21086;-60
2022/10/10 11:20:37;;;;;;;3.45;1.12;;;;;;;15.51;50.86;99115.41;1792941;79;21755;-60
2022/10/10 11:23:19;;;;;;;2.95;0.95;;;;;;;15.70;50.83;99122.11;1787071;78;21540;-59
2022/10/10 11:26:05;;;;;;;2.20;1.00;;;;;;;15.85;49.44;99117.78;1795749;79;21475;-60
2022/10/10 11:28:58;;;;;;;4.25;1.10;;;;;;;15.91;49.26;99114.45;1788656;79;21090;-59
2022/10/10 11:31:39;;;;;;;3.00;1.07;;;;;;;15.91;48.19;99113.09;1781073;79;21093;-60
2022/10/10 11:34:30;;;;;;;2.33;0.82;;;;;;;15.86;48.14;99103.73;1787046;79;21172;-63
2022/10/10 11:37:02;;;;;;;2.65;0.75;;;;;;;15.83;47.53;99098.37;1783775;79;21189;-59
2022/10/10 11:39:45;;;;;;;1.82;1.00;;;;;;;15.88;46.48;99100.98;1788799;79;21440;-61
2022/10/10 11:42:23;;;;;;;3.42;1.00;;;;;;;15.96;47.22;99096.80;1782257;79;21182;-60
2022/10/10 11:45:06;;;;;;;2.33;0.90;;;;;;;16.13;47.04;99091.62;1780163;79;20952;-60
2022/10/10 11:47:43;;;;;;;4.05;0.95;;;;;;;16.30;47.03;99089.09;1793028;79;21626;-59
2022/10/10 11:50:35;;;;;;;4.97;0.80;;;;;;;16.49;46.45;99097.12;1788180;79;20979;-60
2022/10/10 11:53:38;;;;;;;2.50;0.85;;;;;;;16.71;45.55;99091.25;1793083;79;21484;-60
2022/10/10 11:56:29;;;;;;;2.08;0.70;;;;;;;16.93;45.42;99090.52;1774380;79;21668;-62
2022/10/10 11:59:16;;;;;;;1.62;0.80;;;;;;;17.11;42.64;99088.19;1771194;80;20967;-60
2022/10/10 12:01:48;;;;;;;1.25;0.60;;;;;;;17.16;43.13;99084.56;1775597;79;21217;-59
2022/10/10 12:04:15;;;;;;;1.37;0.60;;;;;;;17.13;41.29;99083.27;1769840;80;21114;-60
2022/10/10 12:06:49;;;;;;;3.47;0.78;;;;;;;17.05;41.74;99078.60;1781344;79;21450;-59